Time;durP1;ratioP1;P1;durP2;ratioP2;P2;SDS_P1;SDS_P2;PMS_P1;PMS_P2;Temp;Humidity;BMP_temperature;BMP_pressure;BME280_temperature;BME280_humidity;BME280_pressure;Samples;Min_cycle;Max_cycle;Signal;HPM_P1;HPM_P2
2022/09/17 00:01:02;;;;;;;6.57;3.95;;;;;;;18.55;75.52;96009.13;5047165;28;20091;-60
2022/09/17 00:03:29;;;;;;;14.98;4.90;;;;;;;18.87;74.64;96043.41;5047307;28;20084;-63
2022/09/17 00:06:00;;;;;;;8.60;4.20;;;;;;;19.00;74.32;96049.00;5046144;28;20052;-62
2022/09/17 00:08:27;;;;;;;10.35;4.10;;;;;;;19.60;73.94;96120.09;5047188;28;20096;-62
2022/09/17 00:10:54;;;;;;;12.07;5.15;;;;;;;19.56;73.92;96092.09;5046807;28;20503;-61
2022/09/17 00:13:21;;;;;;;12.40;5.10;;;;;;;19.73;73.83;96112.44;5043197;28;20061;-61
2022/09/17 00:15:50;;;;;;;12.63;4.35;;;;;;;17.58;73.55;95763.06;5047183;28;20056;-61
2022/09/17 00:18:17;;;;;;;9.65;4.07;;;;;;;19.89;73.13;96107.44;5045663;28;20049;-62
2022/09/17 00:20:46;;;;;;;10.10;4.35;;;;;;;19.82;72.81;96106.91;5045739;28;20061;-61
2022/09/17 00:23:13;;;;;;;11.93;3.83;;;;;;;19.92;72.60;96108.53;5047413;28;20559;-61
2022/09/17 00:25:42;;;;;;;12.70;4.40;;;;;;;18.88;71.72;95952.34;5046915;28;20049;-62
2022/09/17 00:28:10;;;;;;;10.60;4.13;;;;;;;20.05;71.61;96103.69;5046648;28;20487;-61
2022/09/17 00:30:40;;;;;;;10.25;3.35;;;;;;;20.04;71.34;96099.31;5046665;28;20089;-62
2022/09/17 00:33:07;;;;;;;11.80;3.65;;;;;;;19.95;71.50;96099.22;5047272;28;20143;-61
2022/09/17 00:35:33;;;;;;;11.18;4.53;;;;;;;20.07;70.93;96095.56;5046397;28;20102;-63
2022/09/17 00:38:00;;;;;;;10.93;4.22;;;;;;;20.07;70.91;96095.56;5045617;28;20052;-60
2022/09/17 00:40:27;;;;;;;11.45;3.97;;;;;;;19.84;70.39;96053.84;5045272;28;20088;-62
2022/09/17 00:42:53;;;;;;;10.60;4.10;;;;;;;19.81;70.29;96043.47;5045114;28;20051;-61
2022/09/17 00:45:20;;;;;;;5.57;3.42;;;;;;;19.95;70.45;96066.25;5046421;28;20493;-64
2022/09/17 00:47:56;;;;;;;5.30;3.75;;;;;;;20.22;69.98;96091.03;5044542;28;20577;-61
2022/09/17 00:50:35;;;;;;;8.15;4.32;;;;;;;19.89;69.80;96050.41;5046350;28;20516;-61
2022/09/17 00:53:09;;;;;;;8.73;3.75;;;;;;;19.99;70.41;96105.50;5045210;28;20139;-62
2022/09/17 00:55:40;;;;;;;6.57;4.32;;;;;;;19.91;70.34;96076.06;5044751;28;20561;-62
2022/09/17 00:58:10;;;;;;;8.13;4.57;;;;;;;20.04;70.54;96082.44;5046533;28;20478;-60
2022/09/17 01:00:37;;;;;;;10.75;4.20;;;;;;;19.44;70.49;96015.03;5045962;28;20150;-61
2022/09/17 01:03:04;;;;;;;6.78;4.00;;;;;;;19.64;70.80;96050.50;5046366;28;20083;-61
2022/09/17 01:05:48;;;;;;;9.25;3.55;;;;;;;19.87;71.10;96081.03;5046289;28;20502;-61
2022/09/17 01:08:32;;;;;;;6.55;4.15;;;;;;;19.76;71.75;96075.00;5046263;28;20061;-62
2022/09/17 01:11:13;;;;;;;8.38;3.92;;;;;;;19.69;71.96;96076.00;5046206;28;20140;-61
2022/09/17 01:14:17;;;;;;;12.95;3.90;;;;;;;19.70;71.66;96065.53;5045729;28;20053;-61
2022/09/17 01:16:54;;;;;;;6.85;3.85;;;;;;;19.65;71.66;96080.97;5044149;28;20140;-63
2022/09/17 01:19:40;;;;;;;7.95;4.30;;;;;;;19.58;71.69;96080.41;5045793;28;20582;-60
2022/09/17 01:22:10;;;;;;;6.35;4.13;;;;;;;19.49;71.93;96079.09;5045761;28;20961;-61
2022/09/17 01:24:47;;;;;;;6.15;3.50;;;;;;;19.45;72.35;96081.22;5045916;28;20088;-60
2022/09/17 01:27:51;;;;;;;11.65;3.65;;;;;;;19.38;72.46;96078.66;5046034;28;20063;-60
2022/09/17 01:30:25;;;;;;;11.27;3.38;;;;;;;19.35;72.78;96079.56;5044079;28;20134;-63
2022/09/17 01:33:01;;;;;;;9.43;4.55;;;;;;;19.21;73.78;96076.38;5044356;28;20640;-59
2022/09/17 01:35:53;;;;;;;11.40;3.58;;;;;;;19.10;73.79;96078.75;5045614;28;20143;-59
2022/09/17 01:38:26;;;;;;;6.03;3.72;;;;;;;18.99;74.73;96067.84;5044303;28;20397;-62
2022/09/17 01:41:06;;;;;;;10.50;3.88;;;;;;;18.75;77.93;96069.41;5045634;28;20111;-60
2022/09/17 01:43:53;;;;;;;8.27;4.03;;;;;;;18.39;78.85;96029.63;5044205;28;20071;-60
2022/09/17 01:46:29;;;;;;;7.65;4.45;;;;;;;18.61;80.31;96064.22;5045525;28;20045;-61
2022/09/17 01:49:00;;;;;;;11.32;4.65;;;;;;;18.70;80.15;96072.75;5044190;28;20056;-60
2022/09/17 01:51:35;;;;;;;7.72;4.40;;;;;;;18.43;79.49;96021.88;5045608;28;20060;-61
2022/09/17 01:54:09;;;;;;;8.10;4.07;;;;;;;18.29;77.98;96025.09;5043910;28;20132;-61
2022/09/17 01:56:41;;;;;;;7.25;3.85;;;;;;;18.48;78.20;96045.81;5045514;28;20114;-61
2022/09/17 01:59:19;;;;;;;12.38;4.63;;;;;;;18.52;78.66;96064.09;5044603;28;20524;-61
2022/09/17 02:01:52;;;;;;;9.70;4.50;;;;;;;18.23;78.45;96018.47;5045010;28;20563;-62
2022/09/17 02:04:21;;;;;;;15.25;4.60;;;;;;;18.57;78.03;96073.97;5043589;28;20127;-62
2022/09/17 02:06:56;;;;;;;10.25;4.63;;;;;;;18.48;78.44;96066.22;5045347;28;20496;-61
2022/09/17 02:09:29;;;;;;;15.90;5.53;;;;;;;17.69;82.34;95992.38;5043864;28;20711;-60
2022/09/17 02:12:02;;;;;;;7.22;4.18;;;;;;;18.11;83.88;96059.22;5044036;28;20144;-62
2022/09/17 02:14:52;;;;;;;8.93;4.10;;;;;;;18.15;83.77;96064.75;5044914;28;20080;-61
2022/09/17 02:17:37;;;;;;;10.93;4.40;;;;;;;18.13;84.23;96072.81;5045067;28;20138;-62
2022/09/17 02:20:05;;;;;;;10.90;4.50;;;;;;;18.13;84.37;96078.41;5044610;28;20102;-59
2022/09/17 02:22:42;;;;;;;12.40;4.28;;;;;;;18.14;83.12;96066.00;5045331;28;20049;-61
2022/09/17 02:25:24;;;;;;;9.98;4.43;;;;;;;18.16;82.17;96080.34;5044140;28;20139;-61
2022/09/17 02:28:02;;;;;;;10.52;4.13;;;;;;;17.93;81.05;96044.94;5043644;28;20495;-61
2022/09/17 02:30:29;;;;;;;7.63;3.38;;;;;;;18.18;80.29;96075.06;5043565;28;20052;-61
2022/09/17 02:32:56;;;;;;;8.00;3.60;;;;;;;18.19;80.18;96065.44;5044809;28;20092;-61
2022/09/17 02:35:23;;;;;;;10.73;4.18;;;;;;;18.09;80.57;96044.09;5043112;28;20061;-61
2022/09/17 02:37:52;;;;;;;10.93;3.90;;;;;;;18.03;80.76;96046.69;5044557;28;20088;-61
2022/09/17 02:40:22;;;;;;;17.08;4.68;;;;;;;17.02;80.30;95892.63;5044047;28;20095;-61
2022/09/17 02:43:04;;;;;;;11.75;3.88;;;;;;;18.01;80.50;96059.53;5044711;28;20522;-60
2022/09/17 02:45:51;;;;;;;15.30;3.90;;;;;;;17.99;80.61;96068.38;5042866;28;20048;-61
2022/09/17 02:48:41;;;;;;;10.43;4.05;;;;;;;17.90;81.19;96075.84;5044440;28;20061;-62
2022/09/17 02:51:52;;;;;;;9.15;3.90;;;;;;;17.50;81.88;96018.50;5043947;28;20527;-61
2022/09/17 02:54:28;;;;;;;10.45;3.90;;;;;;;17.74;82.04;96048.66;5035886;28;20584;-61
2022/09/17 02:57:10;;;;;;;6.30;3.95;;;;;;;17.66;82.31;96021.28;5044444;28;20081;-62
2022/09/17 03:00:02;;;;;;;9.77;4.15;;;;;;;17.55;82.84;96027.19;5042551;28;20579;-60
2022/09/17 03:02:58;;;;;;;6.43;3.40;;;;;;;17.54;83.00;96027.63;5042753;28;20562;-61
2022/09/17 03:05:26;;;;;;;9.15;3.80;;;;;;;17.50;83.11;96013.69;5040156;28;20508;-59
2022/09/17 03:07:58;;;;;;;17.85;4.13;;;;;;;17.47;83.03;96002.59;5044068;28;20084;-62
2022/09/17 03:10:32;;;;;;;9.05;4.05;;;;;;;17.39;83.37;96001.16;5043801;28;20130;-61
2022/09/17 03:12:59;;;;;;;15.35;4.82;;;;;;;17.55;82.73;96009.56;5043332;28;20151;-61
2022/09/17 03:15:25;;;;;;;12.38;3.83;;;;;;;17.45;82.40;95982.66;5043471;28;20094;-65
2022/09/17 03:17:52;;;;;;;15.27;3.85;;;;;;;17.33;82.22;95969.34;5042903;28;20045;-61
2022/09/17 03:20:19;;;;;;;10.10;3.85;;;;;;;17.55;82.76;95998.38;5044387;28;20109;-62
2022/09/17 03:22:46;;;;;;;14.95;3.78;;;;;;;17.37;83.15;95970.06;5044672;28;20081;-62
2022/09/17 03:25:12;;;;;;;9.25;3.58;;;;;;;17.03;82.73;95938.94;5044095;28;20088;-62
2022/09/17 03:27:39;;;;;;;9.38;3.78;;;;;;;17.50;82.49;95984.91;5044264;28;20053;-61
2022/09/17 03:30:07;;;;;;;13.27;3.47;;;;;;;17.25;81.73;95948.38;5042716;28;20095;-61
2022/09/17 03:32:33;;;;;;;8.52;4.00;;;;;;;17.25;82.30;95962.34;5044541;28;20111;-62
2022/09/17 03:35:00;;;;;;;9.30;4.30;;;;;;;17.38;84.41;95994.00;5044279;28;20084;-61
2022/09/17 03:37:27;;;;;;;6.68;3.42;;;;;;;16.42;84.97;95850.19;5044295;28;20538;-62
2022/09/17 03:39:58;;;;;;;9.18;4.00;;;;;;;15.62;85.24;95730.03;5042819;28;20436;-61
2022/09/17 03:42:25;;;;;;;12.30;4.45;;;;;;;17.37;84.55;95984.06;5046104;28;20048;-62
2022/09/17 03:44:51;;;;;;;9.60;4.00;;;;;;;16.87;83.19;95897.81;5047622;28;20052;-61
2022/09/17 03:47:18;;;;;;;9.52;4.32;;;;;;;17.49;82.83;95994.53;5047938;28;20061;-61
2022/09/17 03:49:45;;;;;;;10.98;3.42;;;;;;;17.09;82.63;95932.38;5047846;28;20080;-61
2022/09/17 03:52:11;;;;;;;7.53;3.50;;;;;;;17.62;82.06;95998.19;5047954;28;20144;-61
2022/09/17 03:54:38;;;;;;;7.22;3.53;;;;;;;17.64;82.19;95979.72;5046561;28;20060;-63
2022/09/17 03:57:05;;;;;;;12.35;4.20;;;;;;;17.27;82.22;95923.53;5047451;28;20048;-60
2022/09/17 03:59:31;;;;;;;6.70;3.60;;;;;;;17.63;82.04;95971.75;5047229;28;20562;-62
2022/09/17 04:01:58;;;;;;;6.57;3.58;;;;;;;17.70;80.91;95969.53;5047653;28;20079;-61
2022/09/17 04:04:25;;;;;;;16.95;5.97;;;;;;;17.39;81.32;95934.78;5047538;28;20049;-62
2022/09/17 04:06:51;;;;;;;12.70;5.10;;;;;;;16.77;81.69;95842.91;5046090;28;20103;-60
2022/09/17 04:09:18;;;;;;;11.48;5.25;;;;;;;17.55;81.91;95959.16;5047402;28;20068;-64
2022/09/17 04:11:45;;;;;;;10.00;4.00;;;;;;;17.48;82.03;95948.19;5046950;28;20130;-60
2022/09/17 04:14:11;;;;;;;9.48;3.63;;;;;;;16.68;82.09;95839.19;5047432;28;20128;-62
2022/09/17 04:16:38;;;;;;;9.73;3.80;;;;;;;16.60;82.19;95811.41;5045610;28;20862;-60
2022/09/17 04:19:05;;;;;;;10.30;4.03;;;;;;;17.11;81.70;95890.78;5047329;28;20495;-61
2022/09/17 04:21:31;;;;;;;10.20;3.72;;;;;;;17.67;81.45;95955.66;5045503;28;20064;-61
2022/09/17 04:23:58;;;;;;;10.30;4.18;;;;;;;17.52;82.12;95965.66;5047189;28;20101;-63
2022/09/17 04:26:25;;;;;;;7.28;3.70;;;;;;;17.45;81.99;95954.66;5046617;28;20125;-63
2022/09/17 04:28:52;;;;;;;10.50;4.05;;;;;;;17.20;82.60;95929.34;5045684;28;20122;-61
2022/09/17 04:31:18;;;;;;;11.68;4.25;;;;;;;17.62;82.00;95970.19;5046385;28;20048;-60
2022/09/17 04:33:45;;;;;;;9.50;3.67;;;;;;;17.53;81.87;95967.25;5046875;28;20045;-62
2022/09/17 04:36:11;;;;;;;9.02;4.28;;;;;;;17.33;81.65;95907.75;5046465;28;20144;-60
2022/09/17 04:38:38;;;;;;;17.90;4.43;;;;;;;17.18;80.98;95870.97;5045036;28;20091;-61
2022/09/17 04:41:08;;;;;;;21.10;5.78;;;;;;;17.55;81.98;95954.38;5046320;28;20179;-60
2022/09/17 04:43:35;;;;;;;10.98;4.57;;;;;;;17.48;83.91;95981.78;5046333;28;20127;-60
2022/09/17 04:46:01;;;;;;;7.35;3.97;;;;;;;15.39;83.34;95640.91;5045254;28;20092;-60
2022/09/17 04:48:28;;;;;;;10.25;4.18;;;;;;;16.98;83.77;95887.13;5044850;28;20088;-62
2022/09/17 04:50:54;;;;;;;11.27;4.97;;;;;;;17.64;82.99;95967.75;5044835;28;20547;-61
2022/09/17 04:53:21;;;;;;;10.63;5.78;;;;;;;17.89;82.47;95981.84;5043963;28;20136;-62
2022/09/17 04:55:47;;;;;;;20.00;5.93;;;;;;;18.05;81.13;95978.97;5046157;28;20081;-61
2022/09/17 04:58:14;;;;;;;16.88;4.63;;;;;;;18.05;80.55;95973.38;5041048;28;20500;-61
2022/09/17 05:00:41;;;;;;;14.70;5.18;;;;;;;18.24;79.86;95972.38;5026352;28;20054;-63
2022/09/17 05:03:08;;;;;;;13.13;4.75;;;;;;;18.37;78.92;95964.75;5026379;28;20053;-63
2022/09/17 05:05:34;;;;;;;7.88;3.92;;;;;;;18.51;78.13;95969.97;5026178;28;20500;-61
2022/09/17 05:08:01;;;;;;;12.75;4.25;;;;;;;18.72;76.79;95963.69;5026408;28;20137;-61
2022/09/17 05:10:28;;;;;;;13.73;4.40;;;;;;;18.54;76.02;95910.16;5026167;28;20049;-61
2022/09/17 05:12:56;;;;;;;9.00;3.97;;;;;;;18.52;75.27;95876.19;5025887;28;20131;-62
2022/09/17 05:15:24;;;;;;;12.35;4.25;;;;;;;18.59;73.99;95852.75;5026188;28;20123;-62
2022/09/17 05:17:50;;;;;;;11.15;3.50;;;;;;;19.68;72.84;95978.13;5026162;28;20089;-61
2022/09/17 05:20:17;;;;;;;15.48;5.28;;;;;;;19.19;71.57;95873.91;5025774;28;20496;-62
2022/09/17 05:22:46;;;;;;;7.45;4.03;;;;;;;19.41;73.92;95959.78;5040737;28;20049;-60
2022/09/17 05:25:15;;;;;;;14.52;4.55;;;;;;;19.73;73.43;95946.63;5025866;28;20377;-61
2022/09/17 05:27:42;;;;;;;13.63;4.65;;;;;;;20.13;72.67;95936.28;5002567;28;20139;-62
2022/09/17 05:30:10;;;;;;;15.10;4.57;;;;;;;20.48;70.16;95937.75;5024539;28;20472;-62
2022/09/17 05:32:37;;;;;;;16.27;4.00;;;;;;;20.45;68.25;95908.53;5040580;28;20514;-62
2022/09/17 05:35:05;;;;;;;14.45;4.35;;;;;;;20.89;67.97;95948.56;5040916;28;20456;-61
2022/09/17 05:37:32;;;;;;;14.45;4.25;;;;;;;20.96;66.92;95939.84;5025221;28;20089;-62
2022/09/17 05:39:58;;;;;;;16.77;5.35;;;;;;;20.73;66.48;95878.44;5025621;28;20524;-61
2022/09/17 05:42:25;;;;;;;10.75;4.38;;;;;;;21.04;66.10;95918.59;5025534;28;20802;-61
2022/09/17 05:44:52;;;;;;;10.55;4.25;;;;;;;21.45;65.63;95940.56;5025617;28;20052;-61
2022/09/17 05:47:18;;;;;;;16.27;4.50;;;;;;;21.64;65.38;95922.41;5025981;28;20099;-62
2022/09/17 05:49:45;;;;;;;14.30;5.38;;;;;;;21.24;64.53;95828.81;5028366;28;20135;-61
2022/09/17 05:52:11;;;;;;;19.15;5.78;;;;;;;21.61;64.19;95864.16;5034775;28;20572;-59
2022/09/17 05:54:38;;;;;;;12.63;3.70;;;;;;;21.45;63.39;95801.72;5039839;28;20049;-61
2022/09/17 05:57:05;;;;;;;13.10;5.28;;;;;;;22.11;62.28;95821.16;5025672;28;20152;-61
2022/09/17 05:59:32;;;;;;;9.88;4.20;;;;;;;23.27;60.61;95919.94;5026727;28;20218;-62
2022/09/17 06:01:58;;;;;;;7.88;3.92;;;;;;;23.47;58.60;95891.06;5024966;28;20107;-64
2022/09/17 06:04:25;;;;;;;7.43;4.45;;;;;;;23.87;56.50;95899.84;5036200;28;20053;-63
2022/09/17 06:06:54;;;;;;;8.27;4.88;;;;;;;24.46;55.42;95917.66;5042618;28;20044;-67
2022/09/17 06:09:21;;;;;;;15.68;5.20;;;;;;;23.18;53.92;95667.72;5042302;28;20136;-64
2022/09/17 06:11:48;;;;;;;10.40;5.28;;;;;;;25.23;53.37;95931.03;5053797;28;20164;-67
2022/09/17 06:14:15;;;;;;;13.85;5.93;;;;;;;25.27;52.42;95886.28;5061595;28;20382;-66
2022/09/17 06:16:41;;;;;;;8.93;5.22;;;;;;;25.64;51.36;95919.78;5042303;28;20049;-67
2022/09/17 06:19:08;;;;;;;13.10;5.78;;;;;;;24.97;51.90;95864.97;5042800;28;20052;-63
2022/09/17 06:21:35;;;;;;;16.90;5.47;;;;;;;24.76;52.94;95879.56;5047849;28;20079;-66
2022/09/17 06:24:02;;;;;;;14.15;5.53;;;;;;;25.07;54.42;95925.91;5045910;28;20078;-65
2022/09/17 06:26:28;;;;;;;16.60;6.05;;;;;;;25.16;54.30;95930.69;5036991;28;20498;-66
2022/09/17 06:28:57;;;;;;;16.15;6.13;;;;;;;24.46;54.89;95878.81;5023858;28;20146;-62
2022/09/17 06:31:24;;;;;;;15.55;6.13;;;;;;;24.56;53.62;95832.13;5027687;28;20045;-67
2022/09/17 06:33:50;;;;;;;14.30;5.65;;;;;;;25.31;53.87;95942.75;5024269;28;20073;-64
2022/09/17 06:36:18;;;;;;;12.27;6.28;;;;;;;25.23;53.93;95914.03;5022465;28;20396;-67
2022/09/17 06:38:44;;;;;;;13.68;5.68;;;;;;;25.52;53.53;95952.09;4995400;28;20607;-69
2022/09/17 06:41:13;;;;;;;17.10;5.60;;;;;;;24.93;52.41;95821.88;5045798;28;20124;-63
2022/09/17 06:43:40;;;;;;;13.43;6.50;;;;;;;25.61;53.41;95957.66;5024146;28;20103;-65
2022/09/17 06:46:07;;;;;;;17.65;5.85;;;;;;;24.06;53.75;95739.97;5024703;28;20178;-64
2022/09/17 06:48:36;;;;;;;10.30;5.68;;;;;;;25.03;55.27;95945.19;5026780;28;20136;-66
2022/09/17 06:51:05;;;;;;;9.27;5.68;;;;;;;24.63;55.30;95928.00;5023510;28;20530;-63
2022/09/17 06:53:33;;;;;;;21.40;6.50;;;;;;;24.38;55.99;95888.97;5023964;28;20089;-63
2022/09/17 06:56:00;;;;;;;15.68;5.88;;;;;;;25.12;55.09;95964.91;5022392;28;20439;-59
2022/09/17 06:58:32;;;;;;;12.40;4.90;;;;;;;24.98;55.96;95971.38;5024915;28;20049;-61
2022/09/17 07:01:00;;;;;;;21.02;5.78;;;;;;;24.70;56.57;95927.66;5030062;28;20053;-67
2022/09/17 07:03:29;;;;;;;17.38;6.13;;;;;;;25.08;55.93;95967.16;5042507;28;20056;-60
2022/09/17 07:05:56;;;;;;;23.85;6.85;;;;;;;25.03;55.40;95950.84;5043901;28;20092;-60
2022/09/17 07:08:24;;;;;;;22.25;5.90;;;;;;;25.21;55.62;95978.94;5042477;28;20541;-58
2022/09/17 07:10:55;;;;;;;17.95;6.07;;;;;;;24.84;56.03;95949.50;5041678;28;20458;-64
2022/09/17 07:13:22;;;;;;;15.38;5.70;;;;;;;24.49;56.58;95852.34;5038242;28;20049;-64
2022/09/17 07:15:54;;;;;;;16.15;6.75;;;;;;;24.84;56.60;95938.19;5033421;28;20073;-59
2022/09/17 07:18:22;;;;;;;20.75;7.50;;;;;;;24.59;56.23;95904.78;5029408;28;20385;-61
2022/09/17 07:20:56;;;;;;;22.98;6.88;;;;;;;24.41;58.21;95967.25;5028961;28;20053;-61
2022/09/17 07:23:24;;;;;;;18.13;5.82;;;;;;;24.60;56.96;95939.53;5029391;28;20045;-63
2022/09/17 07:25:53;;;;;;;26.83;5.78;;;;;;;24.57;56.78;95906.53;5026499;28;20619;-63
2022/09/17 07:28:20;;;;;;;27.92;6.97;;;;;;;25.16;55.79;95970.38;5027841;28;20053;-62
2022/09/17 07:30:47;;;;;;;20.30;7.93;;;;;;;24.32;55.24;95842.81;5028044;28;20081;-66
2022/09/17 07:33:15;;;;;;;26.23;8.77;;;;;;;25.00;54.54;95934.84;5030156;28;20081;-59
2022/09/17 07:35:42;;;;;;;20.45;7.22;;;;;;;25.37;54.69;95986.16;5045869;28;20125;-66
2022/09/17 07:38:09;;;;;;;13.57;5.47;;;;;;;25.44;54.71;95979.31;5047995;28;20088;-62
2022/09/17 07:40:36;;;;;;;19.25;7.57;;;;;;;25.24;54.70;95929.75;5045695;28;20072;-61
2022/09/17 07:43:03;;;;;;;14.18;6.07;;;;;;;25.63;54.27;95974.94;5038330;28;20049;-61
2022/09/17 07:45:30;;;;;;;10.25;5.70;;;;;;;25.82;53.55;95937.28;5035069;28;20080;-62
2022/09/17 07:47:56;;;;;;;10.68;5.70;;;;;;;25.97;52.75;95954.22;5046807;28;20123;-61
2022/09/17 07:50:23;;;;;;;10.27;5.75;;;;;;;25.66;52.87;95877.47;5040959;28;20045;-60
2022/09/17 07:52:50;;;;;;;18.17;6.60;;;;;;;26.09;52.50;95953.09;5027517;28;20052;-61
2022/09/17 07:55:17;;;;;;;17.48;6.40;;;;;;;25.78;52.48;95899.06;5026522;28;20130;-60
2022/09/17 07:57:49;;;;;;;9.82;5.80;;;;;;;25.78;51.30;95845.91;5038783;28;20049;-66
2022/09/17 08:00:16;;;;;;;14.93;6.30;;;;;;;25.07;50.85;95693.50;5033194;28;20096;-62
2022/09/17 08:02:43;;;;;;;13.10;5.97;;;;;;;26.49;51.18;95914.00;5026032;28;20343;-64
2022/09/17 08:05:10;;;;;;;14.65;6.20;;;;;;;25.61;50.10;95784.63;5031183;28;20691;-60
2022/09/17 08:07:36;;;;;;;19.92;7.20;;;;;;;26.56;50.11;95870.16;5046355;28;20136;-68
2022/09/17 08:10:04;;;;;;;20.98;7.78;;;;;;;26.59;49.56;95830.19;5047278;28;20056;-63
2022/09/17 08:12:30;;;;;;;10.02;5.43;;;;;;;27.59;48.71;95939.69;5045506;28;20076;-61
2022/09/17 08:14:57;;;;;;;15.25;6.38;;;;;;;27.77;47.93;95939.25;5046783;28;20143;-63
2022/09/17 08:17:24;;;;;;;15.30;6.45;;;;;;;27.78;46.98;95932.28;5041492;28;20126;-66
2022/09/17 08:19:50;;;;;;;11.05;7.03;;;;;;;27.94;47.36;95906.00;5031156;28;20076;-66
2022/09/17 08:22:17;;;;;;;13.38;6.53;;;;;;;27.21;47.15;95803.72;5038749;28;20132;-62
2022/09/17 08:24:44;;;;;;;14.27;7.25;;;;;;;28.20;46.78;95942.06;5026118;28;20477;-64
2022/09/17 08:27:10;;;;;;;16.13;5.97;;;;;;;28.29;46.63;95938.97;5025248;28;20093;-63
2022/09/17 08:29:37;;;;;;;19.70;7.57;;;;;;;27.24;47.40;95825.44;5026352;28;20119;-67
2022/09/17 08:32:04;;;;;;;17.98;7.80;;;;;;;28.29;47.08;95927.56;5026558;28;20089;-69
2022/09/17 08:34:30;;;;;;;20.08;8.55;;;;;;;28.08;46.43;95850.09;5029132;28;20160;-65
2022/09/17 08:36:57;;;;;;;13.82;6.90;;;;;;;28.79;45.76;95914.19;5026882;28;20149;-67
2022/09/17 08:39:23;;;;;;;22.67;7.78;;;;;;;28.85;45.20;95906.44;5015139;28;20107;-60
2022/09/17 08:42:16;;;;;;;13.95;7.13;;;;;;;28.72;44.28;95886.22;5036191;28;20049;-58
2022/09/17 08:44:46;;;;;;;16.60;6.95;;;;;;;29.01;43.99;95899.91;5022417;28;20144;-64
2022/09/17 08:47:21;;;;;;;11.93;7.07;;;;;;;29.16;44.19;95906.97;5028576;28;20081;-58
2022/09/17 08:50:14;;;;;;;13.20;7.95;;;;;;;29.16;43.45;95886.22;5046246;28;20056;-58
2022/09/17 08:53:13;;;;;;;16.58;6.80;;;;;;;28.47;42.64;95784.63;5044858;28;20080;-67
2022/09/17 08:56:04;;;;;;;12.30;7.10;;;;;;;29.22;42.61;95878.41;5044049;28;20137;-61
2022/09/17 08:59:29;;;;;;;9.63;6.80;;;;;;;28.91;44.13;95865.19;5044665;28;20530;-67
2022/09/17 09:02:16;;;;;;;13.10;6.70;;;;;;;27.43;44.40;95680.72;5027593;28;20179;-72
2022/09/17 09:05:07;;;;;;;15.10;6.40;;;;;;;29.12;44.14;95851.44;5006116;28;20080;-64
2022/09/17 09:07:42;;;;;;;13.20;6.85;;;;;;;29.31;44.17;95846.72;5022166;28;20144;-60
2022/09/17 09:10:22;;;;;;;20.02;7.50;;;;;;;29.56;43.66;95839.91;5026466;28;20136;-62
2022/09/17 09:12:50;;;;;;;12.43;6.38;;;;;;;29.85;41.09;95829.94;5044184;28;20134;-64
2022/09/17 09:15:31;;;;;;;11.43;6.45;;;;;;;30.06;41.14;95829.03;5039898;28;20393;-67
2022/09/17 09:18:09;;;;;;;16.17;7.45;;;;;;;30.15;40.91;95805.88;5026004;28;20053;-66
2022/09/17 09:20:47;;;;;;;12.07;6.97;;;;;;;30.38;40.55;95847.28;5025492;28;20141;-66
2022/09/17 09:23:19;;;;;;;16.88;6.40;;;;;;;30.59;39.74;95801.91;5021578;28;20104;-68
2022/09/17 09:26:12;;;;;;;12.57;6.18;;;;;;;29.35;38.19;95596.16;5012445;28;20128;-65
2022/09/17 09:28:44;;;;;;;15.93;6.07;;;;;;;30.76;37.88;95820.50;5026718;28;20188;-67
2022/09/17 09:31:23;;;;;;;13.63;6.68;;;;;;;30.75;37.57;95810.34;5029726;28;20504;-66
2022/09/17 09:33:50;;;;;;;10.65;6.13;;;;;;;30.78;37.78;95792.16;5027076;28;20088;-65
2022/09/17 09:36:20;;;;;;;14.82;6.25;;;;;;;30.48;38.21;95739.91;5032958;28;20123;-63
2022/09/17 09:38:55;;;;;;;10.52;6.63;;;;;;;31.18;37.09;95792.50;5024489;28;20061;-62
2022/09/17 09:41:31;;;;;;;12.50;6.63;;;;;;;31.17;36.77;95790.97;5025329;28;20974;-63
2022/09/17 09:44:09;;;;;;;9.70;7.10;;;;;;;30.72;37.70;95802.06;5024020;28;20057;-64
2022/09/17 09:47:08;;;;;;;12.85;6.18;;;;;;;30.09;37.88;95704.34;5025078;28;20493;-64
2022/09/17 09:49:45;;;;;;;12.43;6.63;;;;;;;31.13;37.45;95793.34;5025107;28;20553;-63
2022/09/17 09:52:33;;;;;;;11.55;6.90;;;;;;;31.09;37.44;95790.81;5025478;28;20052;-63
2022/09/17 09:55:12;;;;;;;14.63;6.93;;;;;;;31.24;37.24;95773.19;5024941;28;20088;-64
2022/09/17 09:57:46;;;;;;;13.95;7.00;;;;;;;31.56;37.38;95789.22;5024009;28;20077;-65
2022/09/17 10:00:25;;;;;;;9.05;6.15;;;;;;;31.92;36.59;95781.22;5024618;28;20140;-63
2022/09/17 10:02:57;;;;;;;10.30;6.47;;;;;;;31.85;36.38;95793.31;5025697;28;20080;-64
2022/09/17 10:05:24;;;;;;;12.75;6.90;;;;;;;31.61;36.44;95756.09;5024586;28;20610;-64
2022/09/17 10:07:51;;;;;;;10.68;6.50;;;;;;;31.69;35.98;95779.94;5023576;28;20065;-64
2022/09/17 10:10:17;;;;;;;11.23;6.90;;;;;;;31.61;36.80;95773.28;5024367;28;20519;-64
2022/09/17 10:12:44;;;;;;;12.68;6.65;;;;;;;31.51;36.27;95772.09;5023562;28;20366;-65
2022/09/17 10:15:26;;;;;;;12.02;6.72;;;;;;;31.13;37.11;95756.13;5024021;28;20140;-64
2022/09/17 10:18:15;;;;;;;17.20;6.25;;;;;;;31.13;37.42;95773.31;5025381;28;20049;-64
2022/09/17 10:21:02;;;;;;;12.38;5.97;;;;;;;31.27;37.54;95777.84;5023033;28;20065;-64
2022/09/17 10:23:35;;;;;;;11.43;6.72;;;;;;;31.32;36.84;95780.66;5025223;28;20058;-64
2022/09/17 10:26:02;;;;;;;13.73;6.68;;;;;;;31.38;36.86;95760.56;5024621;28;20140;-65
2022/09/17 10:28:35;;;;;;;14.10;6.88;;;;;;;31.61;36.58;95761.81;5023580;28;20107;-63
2022/09/17 10:31:08;;;;;;;9.82;6.82;;;;;;;31.41;36.75;95730.88;5022370;28;20522;-63
2022/09/17 10:34:02;;;;;;;12.45;7.25;;;;;;;31.22;36.93;95764.38;5039829;28;20049;-64
2022/09/17 10:36:43;;;;;;;19.55;9.68;;;;;;;30.98;37.27;95772.97;5023741;28;20142;-65
2022/09/17 10:39:32;;;;;;;9.98;5.82;;;;;;;30.70;37.45;95776.84;5023189;28;20127;-64
2022/09/17 10:42:17;;;;;;;8.05;6.45;;;;;;;30.27;38.00;95778.03;5023688;28;20089;-64
2022/09/17 10:44:51;;;;;;;9.75;5.93;;;;;;;30.03;38.49;95797.91;5024278;28;20057;-64
2022/09/17 10:47:28;;;;;;;16.17;6.30;;;;;;;28.88;39.46;95663.03;5023924;28;20072;-65
2022/09/17 10:50:04;;;;;;;15.57;7.15;;;;;;;29.45;40.13;95785.72;5023125;28;20448;-64
2022/09/17 10:52:36;;;;;;;10.52;6.25;;;;;;;28.85;40.92;95723.97;5022264;28;20115;-64
2022/09/17 10:55:37;;;;;;;8.93;6.00;;;;;;;29.12;41.22;95789.47;5022633;28;20095;-63
2022/09/17 10:58:06;;;;;;;11.23;5.65;;;;;;;28.91;41.99;95790.28;5024168;28;20860;-64
2022/09/17 11:00:43;;;;;;;13.10;6.35;;;;;;;28.89;42.12;95795.72;5023579;28;20166;-63
2022/09/17 11:03:53;;;;;;;9.45;5.38;;;;;;;28.73;43.10;95783.06;5024783;28;20496;-64
2022/09/17 11:06:37;;;;;;;10.85;5.90;;;;;;;28.31;43.26;95719.88;5023892;28;20574;-63
2022/09/17 11:09:21;;;;;;;11.75;6.40;;;;;;;28.70;43.13;95777.63;5024329;28;20085;-64
2022/09/17 11:11:56;;;;;;;;;;;;;;;28.73;43.54;95776.59;5022433;28;20061;-64
2022/09/17 11:14:42;;;;;;;10.10;6.00;;;;;;;28.58;44.13;95771.16;5024117;28;20075;-65
2022/09/17 11:17:08;;;;;;;9.90;5.97;;;;;;;28.49;44.76;95784.91;5024287;28;20154;-65
2022/09/17 11:19:35;;;;;;;14.38;6.45;;;;;;;28.37;44.92;95784.13;5024092;28;20077;-65
2022/09/17 11:22:31;;;;;;;15.77;5.90;;;;;;;28.18;46.27;95791.63;5022248;28;20490;-65
2022/09/17 11:25:07;;;;;;;7.72;5.60;;;;;;;27.42;49.43;95792.97;5007496;28;20092;-64
2022/09/17 11:27:55;;;;;;;13.45;6.13;;;;;;;27.48;49.56;95797.38;5022421;28;20057;-64
2022/09/17 11:30:23;;;;;;;9.68;5.68;;;;;;;27.61;48.43;95826.16;5023809;28;20581;-64
2022/09/17 11:33:04;;;;;;;10.27;5.95;;;;;;;27.59;48.24;95847.84;5024112;28;20045;-66
2022/09/17 11:35:36;;;;;;;12.07;6.03;;;;;;;27.12;50.11;95897.75;5023920;28;20119;-66
2022/09/17 11:38:17;;;;;;;13.07;5.70;;;;;;;26.43;55.62;95930.22;5022153;28;20089;-63
2022/09/17 11:41:09;;;;;;;7.15;5.00;;;;;;;25.36;60.80;96007.28;5023374;28;20138;-63
2022/09/17 11:43:46;;;;;;;28.83;6.70;;;;;;;23.22;77.49;96090.13;5023620;28;20108;-61
2022/09/17 11:46:28;;;;;;;11.57;4.70;;;;;;;20.11;100.00;96056.84;5023140;28;20409;-61
2022/09/17 11:49:01;;;;;;;17.70;4.00;;;;;;;19.79;100.00;96149.97;5022139;28;20578;-61
2022/09/17 11:51:28;;;;;;;7.93;3.58;;;;;;;19.24;100.00;96117.59;5023523;28;20147;-63